Hauptseite
METAR-TAF:

METAR-TAF

Flughäfen :

Cardiff Airport

Cardiff, Wales

Breite: 51-24N, Länge: 003-21W, Höhe: 67 m

Beobachtung

Neuester Wetterbericht von vor 17 Minuten, um 02:20 UTC
Wind 5 kt aus Nordost
Temperatur 4°C
Luftfeuchtigkeit 75%
Luftdruck 1033 hPa
Sichtweite 10 km oder mehr

METAR: EGFF 150220Z AUTO 05005KT 9999 NCD 04/M00 Q1033

Zeit: 03:37 (02:37 UTC)

Prognose

Neuester Wetterbericht von vor 3 Stunden und 40 Minuten, um 22:57 UTC
Gültige Prognose vom 15 um 00 UTC bis 15 um 24 UTC
Wind 7 kt aus Ost/Nordost
Sichtweite 10 km oder mehr
Leicht bewölkt in der Höhe von 4500 ft

TAF: EGFF 142257Z 1500/1524 07007KT 9999 FEW045

Wetterbeobachtungen und Prognosen von mehr als 4000 Flughäfen (METAR und TAF Bericht).

Die verfügbaren Stationen werden durch gelbe und rote Markierungen auf der Karte dargestellt.

Führen Sie die Maus auf sie, um den Namen der Station zu sehen.

Darauf klicken, um die Beobachtung von Wetterbeobachtungen und Prognosen zu sehen.

Um die Karte zu ändern : klicken Sie auf den grünen Tasten mit einem schwarzen Kreuz Zum Vergrößern, auf den grünen Button mit einem Gedankenstrich zu verkleinern, oder auf die grünen Pfeile für benachbarte Karten.


METAR-TAF: